West Palm Beach, FL (33406)

3:30 PM EDT on April 28, 2015 (GMT -0400)
LCS Police HQ / EOC | | Change Station
CLOSE
Current Station
Personal Weather Station
Location: Lake Clarke Shores, FL
Elevation: 30 ft
Nearby Weather Stations

Elev 30 ft 26.65 °N, 80.08 °W | Updated 28 seconds ago

Thunderstorm
Thunderstorm
73.1 °F
Feels Like 73.1 °F
N
2.9
Wind Variable Wind from SE
Gusts 18.0 mph

Today
High -- | Low -- °F
--% Chance of Precip.
Yesterday
High -- | Low -- °F
Precip. -- in
6:44 AM 7:51 PM
Waxing Gibbous, 76% visible
Pressure 29.81 in
Visibility 7.0 miles
Clouds Scattered Clouds 1100 ft
Mostly Cloudy 2100 ft
Mostly Cloudy 5500 ft
Dew Point 72 °F
Humidity 95%
Rainfall 0.00 in
Snow Depth Not available.
UV 7 out of 12
Pollen 1.00 out of 12
Air Quality Not available.
Flu Activity Local Activity
METAR KPBI 281853Z 02012G21KT 7SM TS SCT011 BKN021CB BKN055 23/22 A2981 RMK AO2 PK WND 32035/1755 WSHFT 1753 RAE39 SLP093 OCNL LTGICCG NE-S TS NE-S MOV NE CB DSNT SW-NE P0076 T02280217 $

More Conditions Fewer Conditions

Pressure 29.81 in
Visibility 7.0 miles
Clouds Scattered Clouds 1100 ft
Mostly Cloudy 2100 ft
Mostly Cloudy 5500 ft
Dew Point 72 °F
Humidity 95%
Rainfall 0.00 in
Snow Depth Not available.
UV 7 out of 12
Pollen 1.00 out of 12
Air Quality Not available.
Flu Activity Local Activity
METAR KPBI 281853Z 02012G21KT 7SM TS SCT011 BKN021CB BKN055 23/22 A2981 RMK AO2 PK WND 32035/1755 WSHFT 1753 RAE39 SLP093 OCNL LTGICCG NE-S TS NE-S MOV NE CB DSNT SW-NE P0076 T02280217 $

More Conditions Fewer Conditions

10-Day Weather Forecast

Almanac

Astronomy

Apr. 28, 2015 Rise Set
Actual Time
Civil Twilight
Nautical Twilight
Astronomical Twilight
Moon
Length of Visible Light
Length of Day
Tomorrow will be .
, % of the Moon is Illuminated

Today's Extremes

State Highs State Lows

Community

WunderPhotos

Upload Photos

1,817,739 photos uploaded!

WunderBlogs® & News

Nearby

Air Quality

  Air Quality AQ Index Pollutant
Not available.

Snow Depth

Station Depth Elevation

Earthquake Activity

City Distance Mag. Time & Date
Minimum magnitude displayed is 2.5.

Coastal Water Temperatures

Place Temperature

Stations

Nearby Weather Stations

Station Location Temp. Windchill Dew Point Humidity Wind Precip. Elev Updated Type